首页
METAR-TAF:

METAR-TAF

机场 :

Villacoublay, 法国

纬度: 48-46N, 经度: 002-12E, 海拔: 177米

当前天气观测

该预报发布于29分钟前的06:30 UTC
风速3节,风向西转西北
温度 5°C
湿度 93%
气压 1009 hPa
能见度10公里或以上
少量云层高于600英尺
散云层高于2200英尺
阴天层高于3000英尺

METAR: LFPV 170630Z AUTO 30003KT 9999 FEW006 SCT022 OVC030 05/04 Q1009 BECMG BKN008

时间: 07:59 (06:59 UTC)

预报

该预报发布于4小时和59分钟前的02:00 UTC
预报有效从17日的 03点(UTC)到 18日的 03点(UTC)
风速3节,风向东南
能見度: 9000
阴天层高于2700英尺
短暂存在
从 17日的 03点(UTC)到 17日的 07点(UTC)
能見度: 3000
轻雾
几率 30% :
短暂存在
从 17日的 03点(UTC)到 17日的 07点(UTC)
能見度: 0800
碎片雾
成为
从 17日的 07点(UTC)到 17日的 08点(UTC)
多云层高于800英尺
成为
从 17日的 09点(UTC)到 17日的 11点(UTC)
散云层高于3000英尺

TAF: LFPV 170200Z 1703/1803 14003KT 9000 OVC027 TEMPO 1703/1707 3000 BR PROB30 TEMPO 1703/1707 0800 BCFG BECMG 1707/1708 BKN008 BECMG 1709/1711 SCT030

超过4000个机场的气象观测和天气预报(METAR&TAF报告)。

可查询的气象台以黄色和红色小点在地图上表示。

将鼠标移到小点上方,可查看气象台名称。

然后点击查看天气观测和预报。

如需切换地图:点击带黑十字的绿色按钮放大地图;点击带横线的绿色按钮缩小地图;或者点击绿色箭头查看邻近地区的地图。


METAR-TAF: